Hauptseite
METAR-TAF:

METAR-TAF

Flughäfen :

Militärflugplatz Woensdrecht

Woensdrecht, Niederlande

Breite: 51-27N, Länge: 004-20E, Höhe: 20 m

Beobachtung

Neuester Wetterbericht von vor 37 Minuten, um 18:55 UTC
Wind 1 kt aus Nord/Nordwest
Temperatur 9°C
Luftfeuchtigkeit 93%
Luftdruck 1026 hPa
Sichtweite 10 km oder mehr
Geschlossene Wolkendecke in der Höhe von 37000 ft

METAR: EHWO 211855Z AUTO 33001KT 9999 OVC370 09/08 Q1026 BLU

Zeit: 21:32 (19:32 UTC)


TAF: fehlend

Wetterbeobachtungen und Prognosen von mehr als 4000 Flughäfen (METAR und TAF Bericht).

Die verfügbaren Stationen werden durch gelbe und rote Markierungen auf der Karte dargestellt.

Führen Sie die Maus auf sie, um den Namen der Station zu sehen.

Darauf klicken, um die Beobachtung von Wetterbeobachtungen und Prognosen zu sehen.

Um die Karte zu ändern : klicken Sie auf den grünen Tasten mit einem schwarzen Kreuz Zum Vergrößern, auf den grünen Button mit einem Gedankenstrich zu verkleinern, oder auf die grünen Pfeile für benachbarte Karten.


METAR-TAF: